sensor_id;sensor_type;location;lat;lon;timestamp;P1;durP1;ratioP1;P2;durP2;ratioP2
21168;SDS011;10742;51.816;8.662;2023-04-03T00:02:42;4.13;;;1.50;;
21168;SDS011;10742;51.816;8.662;2023-04-03T00:05:44;8.27;;;1.50;;
21168;SDS011;10742;51.816;8.662;2023-04-03T00:08:48;6.53;;;1.60;;
21168;SDS011;10742;51.816;8.662;2023-04-03T00:11:51;4.97;;;1.40;;
21168;SDS011;10742;51.816;8.662;2023-04-03T00:14:53;5.10;;;1.57;;
21168;SDS011;10742;51.816;8.662;2023-04-03T00:17:56;7.53;;;1.40;;
21168;SDS011;10742;51.816;8.662;2023-04-03T00:20:58;4.33;;;1.53;;
21168;SDS011;10742;51.816;8.662;2023-04-03T00:24:01;7.37;;;1.90;;
21168;SDS011;10742;51.816;8.662;2023-04-03T00:27:03;5.00;;;1.60;;
21168;SDS011;10742;51.816;8.662;2023-04-03T00:30:06;6.80;;;1.83;;
21168;SDS011;10742;51.816;8.662;2023-04-03T00:33:13;8.70;;;1.73;;
21168;SDS011;10742;51.816;8.662;2023-04-03T00:36:16;4.53;;;1.30;;
21168;SDS011;10742;51.816;8.662;2023-04-03T00:39:18;6.33;;;1.47;;
21168;SDS011;10742;51.816;8.662;2023-04-03T00:42:20;2.40;;;1.37;;
21168;SDS011;10742;51.816;8.662;2023-04-03T00:45:25;3.73;;;1.27;;
21168;SDS011;10742;51.816;8.662;2023-04-03T00:51:44;6.73;;;1.83;;
21168;SDS011;10742;51.816;8.662;2023-04-03T00:54:47;4.80;;;1.60;;
21168;SDS011;10742;51.816;8.662;2023-04-03T00:57:52;5.33;;;1.20;;
21168;SDS011;10742;51.816;8.662;2023-04-03T01:00:57;6.00;;;1.50;;
21168;SDS011;10742;51.816;8.662;2023-04-03T01:04:04;9.10;;;1.70;;
21168;SDS011;10742;51.816;8.662;2023-04-03T01:07:09;7.00;;;1.80;;
21168;SDS011;10742;51.816;8.662;2023-04-03T01:10:33;3.63;;;1.50;;
21168;SDS011;10742;51.816;8.662;2023-04-03T01:13:35;4.13;;;1.80;;
21168;SDS011;10742;51.816;8.662;2023-04-03T01:16:40;4.20;;;1.30;;
21168;SDS011;10742;51.816;8.662;2023-04-03T01:19:42;6.33;;;1.60;;
21168;SDS011;10742;51.816;8.662;2023-04-03T01:26:13;8.67;;;2.00;;
21168;SDS011;10742;51.816;8.662;2023-04-03T01:29:15;6.67;;;1.40;;
21168;SDS011;10742;51.816;8.662;2023-04-03T01:32:18;5.33;;;1.73;;
21168;SDS011;10742;51.816;8.662;2023-04-03T01:35:20;6.67;;;1.70;;
21168;SDS011;10742;51.816;8.662;2023-04-03T01:38:23;5.07;;;1.50;;
21168;SDS011;10742;51.816;8.662;2023-04-03T01:41:25;2.93;;;1.63;;
21168;SDS011;10742;51.816;8.662;2023-04-03T01:44:34;5.30;;;1.70;;
21168;SDS011;10742;51.816;8.662;2023-04-03T01:47:36;7.60;;;1.53;;
21168;SDS011;10742;51.816;8.662;2023-04-03T01:50:40;4.80;;;1.30;;
21168;SDS011;10742;51.816;8.662;2023-04-03T01:53:43;9.23;;;1.83;;
21168;SDS011;10742;51.816;8.662;2023-04-03T01:56:45;5.13;;;1.50;;
21168;SDS011;10742;51.816;8.662;2023-04-03T01:59:48;4.87;;;1.67;;
21168;SDS011;10742;51.816;8.662;2023-04-03T02:02:51;7.43;;;1.57;;
21168;SDS011;10742;51.816;8.662;2023-04-03T02:05:53;7.23;;;2.00;;
21168;SDS011;10742;51.816;8.662;2023-04-03T02:08:56;5.00;;;1.73;;
21168;SDS011;10742;51.816;8.662;2023-04-03T02:11:58;5.87;;;1.83;;
21168;SDS011;10742;51.816;8.662;2023-04-03T02:15:01;4.57;;;1.60;;
21168;SDS011;10742;51.816;8.662;2023-04-03T02:18:03;3.37;;;1.77;;
21168;SDS011;10742;51.816;8.662;2023-04-03T02:21:05;10.60;;;2.30;;
21168;SDS011;10742;51.816;8.662;2023-04-03T02:24:08;4.57;;;1.47;;
21168;SDS011;10742;51.816;8.662;2023-04-03T02:27:10;3.87;;;1.40;;
21168;SDS011;10742;51.816;8.662;2023-04-03T02:30:12;7.17;;;2.07;;
21168;SDS011;10742;51.816;8.662;2023-04-03T02:33:16;5.63;;;1.63;;
21168;SDS011;10742;51.816;8.662;2023-04-03T02:36:18;5.97;;;2.07;;
21168;SDS011;10742;51.816;8.662;2023-04-03T02:39:26;6.53;;;1.77;;
21168;SDS011;10742;51.816;8.662;2023-04-03T02:42:30;8.23;;;1.80;;
21168;SDS011;10742;51.816;8.662;2023-04-03T02:45:33;4.37;;;1.50;;
21168;SDS011;10742;51.816;8.662;2023-04-03T02:48:35;6.47;;;1.90;;
21168;SDS011;10742;51.816;8.662;2023-04-03T02:51:38;8.73;;;1.67;;
21168;SDS011;10742;51.816;8.662;2023-04-03T02:54:40;4.23;;;1.40;;
21168;SDS011;10742;51.816;8.662;2023-04-03T02:57:44;5.67;;;1.80;;
21168;SDS011;10742;51.816;8.662;2023-04-03T03:00:48;10.63;;;1.73;;
21168;SDS011;10742;51.816;8.662;2023-04-03T03:03:50;8.87;;;2.00;;
21168;SDS011;10742;51.816;8.662;2023-04-03T03:06:52;6.53;;;1.90;;
21168;SDS011;10742;51.816;8.662;2023-04-03T03:09:54;12.27;;;1.90;;
21168;SDS011;10742;51.816;8.662;2023-04-03T03:12:57;12.00;;;1.83;;
21168;SDS011;10742;51.816;8.662;2023-04-03T03:15:59;3.63;;;1.70;;
21168;SDS011;10742;51.816;8.662;2023-04-03T03:19:02;6.13;;;1.77;;
21168;SDS011;10742;51.816;8.662;2023-04-03T03:22:04;4.50;;;1.97;;
21168;SDS011;10742;51.816;8.662;2023-04-03T03:25:07;7.57;;;2.00;;
21168;SDS011;10742;51.816;8.662;2023-04-03T03:28:11;9.00;;;1.70;;
21168;SDS011;10742;51.816;8.662;2023-04-03T03:31:13;8.40;;;1.83;;
21168;SDS011;10742;51.816;8.662;2023-04-03T03:34:17;8.63;;;1.77;;
21168;SDS011;10742;51.816;8.662;2023-04-03T03:37:19;7.67;;;1.77;;
21168;SDS011;10742;51.816;8.662;2023-04-03T03:40:22;4.13;;;1.70;;
21168;SDS011;10742;51.816;8.662;2023-04-03T03:43:24;6.80;;;1.90;;
21168;SDS011;10742;51.816;8.662;2023-04-03T03:46:28;8.73;;;1.73;;
21168;SDS011;10742;51.816;8.662;2023-04-03T03:49:30;10.77;;;1.77;;
21168;SDS011;10742;51.816;8.662;2023-04-03T03:52:33;5.67;;;1.73;;
21168;SDS011;10742;51.816;8.662;2023-04-03T03:55:35;7.67;;;1.70;;
21168;SDS011;10742;51.816;8.662;2023-04-03T03:58:38;5.17;;;1.60;;
21168;SDS011;10742;51.816;8.662;2023-04-03T04:01:41;7.20;;;1.87;;
21168;SDS011;10742;51.816;8.662;2023-04-03T04:04:43;7.23;;;2.10;;
21168;SDS011;10742;51.816;8.662;2023-04-03T04:07:45;6.20;;;1.60;;
21168;SDS011;10742;51.816;8.662;2023-04-03T04:10:48;6.23;;;1.70;;
21168;SDS011;10742;51.816;8.662;2023-04-03T04:13:52;6.67;;;1.93;;
21168;SDS011;10742;51.816;8.662;2023-04-03T04:16:58;9.17;;;1.77;;
21168;SDS011;10742;51.816;8.662;2023-04-03T04:20:02;10.60;;;2.00;;
21168;SDS011;10742;51.816;8.662;2023-04-03T04:23:07;6.27;;;1.80;;
21168;SDS011;10742;51.816;8.662;2023-04-03T04:26:11;11.80;;;2.23;;
21168;SDS011;10742;51.816;8.662;2023-04-03T04:29:14;8.67;;;2.03;;
21168;SDS011;10742;51.816;8.662;2023-04-03T04:32:19;10.63;;;2.17;;
21168;SDS011;10742;51.816;8.662;2023-04-03T04:35:22;6.33;;;1.77;;
21168;SDS011;10742;51.816;8.662;2023-04-03T04:38:26;7.17;;;1.70;;
21168;SDS011;10742;51.816;8.662;2023-04-03T04:41:29;6.97;;;2.20;;
21168;SDS011;10742;51.816;8.662;2023-04-03T04:44:32;5.83;;;1.90;;
21168;SDS011;10742;51.816;8.662;2023-04-03T04:47:34;5.20;;;2.03;;
21168;SDS011;10742;51.816;8.662;2023-04-03T04:50:37;10.70;;;2.30;;
21168;SDS011;10742;51.816;8.662;2023-04-03T04:53:40;6.70;;;1.57;;
21168;SDS011;10742;51.816;8.662;2023-04-03T04:56:44;4.63;;;1.80;;
21168;SDS011;10742;51.816;8.662;2023-04-03T04:59:47;4.90;;;1.63;;
21168;SDS011;10742;51.816;8.662;2023-04-03T05:02:49;7.70;;;2.17;;
21168;SDS011;10742;51.816;8.662;2023-04-03T05:05:53;3.43;;;1.80;;
21168;SDS011;10742;51.816;8.662;2023-04-03T05:08:56;10.57;;;2.50;;
21168;SDS011;10742;51.816;8.662;2023-04-03T05:11:58;7.07;;;1.93;;
21168;SDS011;10742;51.816;8.662;2023-04-03T05:15:05;10.23;;;2.60;;
21168;SDS011;10742;51.816;8.662;2023-04-03T05:18:09;13.13;;;3.77;;
21168;SDS011;10742;51.816;8.662;2023-04-03T05:21:11;26.40;;;6.50;;
21168;SDS011;10742;51.816;8.662;2023-04-03T05:24:14;12.97;;;3.00;;
21168;SDS011;10742;51.816;8.662;2023-04-03T05:27:18;7.73;;;2.10;;
21168;SDS011;10742;51.816;8.662;2023-04-03T05:30:26;10.50;;;2.43;;
21168;SDS011;10742;51.816;8.662;2023-04-03T05:33:28;8.30;;;2.33;;
21168;SDS011;10742;51.816;8.662;2023-04-03T05:36:33;4.67;;;1.80;;
21168;SDS011;10742;51.816;8.662;2023-04-03T05:39:39;5.60;;;1.80;;
21168;SDS011;10742;51.816;8.662;2023-04-03T05:42:43;6.13;;;1.97;;
21168;SDS011;10742;51.816;8.662;2023-04-03T05:45:47;5.10;;;1.80;;
21168;SDS011;10742;51.816;8.662;2023-04-03T05:48:50;8.47;;;2.10;;
21168;SDS011;10742;51.816;8.662;2023-04-03T05:51:55;10.67;;;1.87;;
21168;SDS011;10742;51.816;8.662;2023-04-03T05:55:01;5.83;;;1.73;;
21168;SDS011;10742;51.816;8.662;2023-04-03T05:58:07;8.03;;;1.90;;
21168;SDS011;10742;51.816;8.662;2023-04-03T06:01:10;7.90;;;1.80;;
21168;SDS011;10742;51.816;8.662;2023-04-03T06:04:13;8.13;;;2.17;;
21168;SDS011;10742;51.816;8.662;2023-04-03T06:07:17;6.00;;;1.90;;
21168;SDS011;10742;51.816;8.662;2023-04-03T06:10:23;6.97;;;2.00;;
21168;SDS011;10742;51.816;8.662;2023-04-03T06:13:26;7.30;;;2.10;;
21168;SDS011;10742;51.816;8.662;2023-04-03T06:16:28;7.23;;;2.20;;
21168;SDS011;10742;51.816;8.662;2023-04-03T06:19:30;6.30;;;1.90;;
21168;SDS011;10742;51.816;8.662;2023-04-03T06:22:35;14.20;;;2.87;;
21168;SDS011;10742;51.816;8.662;2023-04-03T06:25:37;8.27;;;2.40;;
21168;SDS011;10742;51.816;8.662;2023-04-03T06:28:40;13.00;;;2.87;;
21168;SDS011;10742;51.816;8.662;2023-04-03T06:31:42;17.30;;;3.30;;
21168;SDS011;10742;51.816;8.662;2023-04-03T06:34:45;13.30;;;3.37;;
21168;SDS011;10742;51.816;8.662;2023-04-03T06:37:48;9.30;;;2.37;;
21168;SDS011;10742;51.816;8.662;2023-04-03T06:40:51;5.70;;;2.13;;
21168;SDS011;10742;51.816;8.662;2023-04-03T06:43:53;11.17;;;2.30;;
21168;SDS011;10742;51.816;8.662;2023-04-03T06:46:58;5.90;;;2.13;;
21168;SDS011;10742;51.816;8.662;2023-04-03T06:50:00;13.80;;;2.40;;
21168;SDS011;10742;51.816;8.662;2023-04-03T06:53:02;6.77;;;2.10;;
21168;SDS011;10742;51.816;8.662;2023-04-03T06:56:05;9.30;;;2.13;;
21168;SDS011;10742;51.816;8.662;2023-04-03T06:59:09;3.63;;;1.90;;
21168;SDS011;10742;51.816;8.662;2023-04-03T07:02:12;8.23;;;2.20;;
21168;SDS011;10742;51.816;8.662;2023-04-03T07:05:14;7.90;;;1.93;;
21168;SDS011;10742;51.816;8.662;2023-04-03T07:08:17;6.57;;;1.83;;
21168;SDS011;10742;51.816;8.662;2023-04-03T07:11:19;5.67;;;1.90;;
21168;SDS011;10742;51.816;8.662;2023-04-03T07:14:22;5.03;;;1.90;;
21168;SDS011;10742;51.816;8.662;2023-04-03T07:17:24;7.77;;;1.97;;
21168;SDS011;10742;51.816;8.662;2023-04-03T07:20:27;7.50;;;1.50;;
21168;SDS011;10742;51.816;8.662;2023-04-03T07:23:29;7.20;;;1.80;;
21168;SDS011;10742;51.816;8.662;2023-04-03T07:26:32;5.80;;;1.70;;
21168;SDS011;10742;51.816;8.662;2023-04-03T07:29:34;5.10;;;1.70;;
21168;SDS011;10742;51.816;8.662;2023-04-03T07:32:37;4.43;;;1.60;;
21168;SDS011;10742;51.816;8.662;2023-04-03T07:35:39;7.90;;;1.73;;
21168;SDS011;10742;51.816;8.662;2023-04-03T07:38:42;8.03;;;1.83;;
21168;SDS011;10742;51.816;8.662;2023-04-03T07:41:45;5.30;;;1.90;;
21168;SDS011;10742;51.816;8.662;2023-04-03T07:44:47;5.80;;;1.67;;
21168;SDS011;10742;51.816;8.662;2023-04-03T07:47:50;3.37;;;1.40;;
21168;SDS011;10742;51.816;8.662;2023-04-03T07:50:53;6.57;;;1.73;;
21168;SDS011;10742;51.816;8.662;2023-04-03T07:53:55;4.17;;;1.80;;
21168;SDS011;10742;51.816;8.662;2023-04-03T07:56:58;5.77;;;1.53;;
21168;SDS011;10742;51.816;8.662;2023-04-03T08:00:00;5.03;;;1.43;;
21168;SDS011;10742;51.816;8.662;2023-04-03T08:03:12;6.07;;;1.63;;
21168;SDS011;10742;51.816;8.662;2023-04-03T08:06:15;5.20;;;1.57;;
21168;SDS011;10742;51.816;8.662;2023-04-03T08:09:19;5.77;;;1.90;;
21168;SDS011;10742;51.816;8.662;2023-04-03T08:12:21;4.27;;;1.27;;
21168;SDS011;10742;51.816;8.662;2023-04-03T08:15:23;3.77;;;1.63;;
21168;SDS011;10742;51.816;8.662;2023-04-03T08:18:26;7.50;;;2.10;;
21168;SDS011;10742;51.816;8.662;2023-04-03T08:21:29;4.80;;;1.60;;
21168;SDS011;10742;51.816;8.662;2023-04-03T08:24:32;4.50;;;1.70;;
21168;SDS011;10742;51.816;8.662;2023-04-03T08:27:36;5.57;;;1.63;;
21168;SDS011;10742;51.816;8.662;2023-04-03T08:30:39;8.40;;;1.70;;
21168;SDS011;10742;51.816;8.662;2023-04-03T08:33:42;3.90;;;1.17;;
21168;SDS011;10742;51.816;8.662;2023-04-03T08:36:45;5.00;;;1.40;;
21168;SDS011;10742;51.816;8.662;2023-04-03T08:39:47;5.07;;;1.20;;
21168;SDS011;10742;51.816;8.662;2023-04-03T08:46:05;4.00;;;1.30;;
21168;SDS011;10742;51.816;8.662;2023-04-03T08:49:14;3.77;;;1.43;;
21168;SDS011;10742;51.816;8.662;2023-04-03T08:52:52;5.30;;;1.20;;
21168;SDS011;10742;51.816;8.662;2023-04-03T08:56:00;4.03;;;1.23;;
21168;SDS011;10742;51.816;8.662;2023-04-03T08:59:09;5.10;;;1.20;;
21168;SDS011;10742;51.816;8.662;2023-04-03T09:02:26;2.97;;;1.00;;
21168;SDS011;10742;51.816;8.662;2023-04-03T09:15:41;4.83;;;1.23;;
21168;SDS011;10742;51.816;8.662;2023-04-03T09:18:45;3.73;;;1.33;;
21168;SDS011;10742;51.816;8.662;2023-04-03T09:21:52;4.77;;;1.50;;
21168;SDS011;10742;51.816;8.662;2023-04-03T09:25:14;5.17;;;1.27;;
21168;SDS011;10742;51.816;8.662;2023-04-03T09:28:19;4.33;;;1.43;;
21168;SDS011;10742;51.816;8.662;2023-04-03T09:31:23;5.27;;;1.60;;
21168;SDS011;10742;51.816;8.662;2023-04-03T09:34:31;2.77;;;1.30;;
21168;SDS011;10742;51.816;8.662;2023-04-03T09:37:40;4.03;;;1.30;;
21168;SDS011;10742;51.816;8.662;2023-04-03T09:44:18;4.30;;;1.20;;
21168;SDS011;10742;51.816;8.662;2023-04-03T09:47:24;6.57;;;1.27;;
21168;SDS011;10742;51.816;8.662;2023-04-03T09:50:33;4.43;;;1.33;;
21168;SDS011;10742;51.816;8.662;2023-04-03T09:53:39;4.10;;;1.23;;
21168;SDS011;10742;51.816;8.662;2023-04-03T09:56:49;4.30;;;1.20;;
21168;SDS011;10742;51.816;8.662;2023-04-03T09:59:58;4.60;;;1.23;;
21168;SDS011;10742;51.816;8.662;2023-04-03T10:03:02;2.07;;;1.20;;
21168;SDS011;10742;51.816;8.662;2023-04-03T10:06:20;4.00;;;1.10;;
21168;SDS011;10742;51.816;8.662;2023-04-03T10:09:26;2.97;;;1.10;;
21168;SDS011;10742;51.816;8.662;2023-04-03T10:12:33;2.57;;;1.20;;
21168;SDS011;10742;51.816;8.662;2023-04-03T10:15:36;2.60;;;1.03;;
21168;SDS011;10742;51.816;8.662;2023-04-03T10:18:45;3.67;;;1.00;;
21168;SDS011;10742;51.816;8.662;2023-04-03T10:21:58;4.90;;;1.37;;
21168;SDS011;10742;51.816;8.662;2023-04-03T10:25:11;3.77;;;1.17;;
21168;SDS011;10742;51.816;8.662;2023-04-03T10:28:34;3.33;;;1.13;;
21168;SDS011;10742;51.816;8.662;2023-04-03T10:35:36;4.83;;;1.60;;
21168;SDS011;10742;51.816;8.662;2023-04-03T10:42:01;3.30;;;1.20;;
21168;SDS011;10742;51.816;8.662;2023-04-03T10:49:14;3.83;;;1.10;;
21168;SDS011;10742;51.816;8.662;2023-04-03T10:55:53;2.73;;;1.30;;
21168;SDS011;10742;51.816;8.662;2023-04-03T10:59:16;2.70;;;1.10;;
21168;SDS011;10742;51.816;8.662;2023-04-03T11:02:51;2.67;;;1.30;;
21168;SDS011;10742;51.816;8.662;2023-04-03T11:06:04;2.80;;;1.17;;
21168;SDS011;10742;51.816;8.662;2023-04-03T11:09:22;5.60;;;1.50;;
21168;SDS011;10742;51.816;8.662;2023-04-03T11:12:36;5.30;;;1.27;;
21168;SDS011;10742;51.816;8.662;2023-04-03T11:15:44;5.17;;;1.40;;
21168;SDS011;10742;51.816;8.662;2023-04-03T11:18:52;4.43;;;1.47;;
21168;SDS011;10742;51.816;8.662;2023-04-03T11:22:02;5.13;;;1.60;;
21168;SDS011;10742;51.816;8.662;2023-04-03T11:28:13;9.00;;;1.60;;
21168;SDS011;10742;51.816;8.662;2023-04-03T11:31:33;9.80;;;1.87;;
21168;SDS011;10742;51.816;8.662;2023-04-03T11:34:59;5.97;;;1.63;;
21168;SDS011;10742;51.816;8.662;2023-04-03T11:38:04;6.43;;;1.33;;
21168;SDS011;10742;51.816;8.662;2023-04-03T11:41:10;3.17;;;1.10;;
21168;SDS011;10742;51.816;8.662;2023-04-03T11:47:46;6.77;;;1.40;;
21168;SDS011;10742;51.816;8.662;2023-04-03T11:50:54;8.57;;;1.63;;
21168;SDS011;10742;51.816;8.662;2023-04-03T11:54:34;2.67;;;1.37;;
21168;SDS011;10742;51.816;8.662;2023-04-03T12:04:13;3.17;;;1.40;;
21168;SDS011;10742;51.816;8.662;2023-04-03T12:07:18;4.73;;;1.73;;
21168;SDS011;10742;51.816;8.662;2023-04-03T12:10:21;3.13;;;1.30;;
21168;SDS011;10742;51.816;8.662;2023-04-03T12:13:31;3.87;;;1.50;;
21168;SDS011;10742;51.816;8.662;2023-04-03T12:19:39;7.73;;;1.60;;
21168;SDS011;10742;51.816;8.662;2023-04-03T12:23:06;3.03;;;1.43;;
21168;SDS011;10742;51.816;8.662;2023-04-03T12:26:20;3.53;;;1.40;;
21168;SDS011;10742;51.816;8.662;2023-04-03T12:29:29;7.07;;;1.97;;
21168;SDS011;10742;51.816;8.662;2023-04-03T12:36:18;3.00;;;1.20;;
21168;SDS011;10742;51.816;8.662;2023-04-03T12:39:40;6.57;;;1.60;;
21168;SDS011;10742;51.816;8.662;2023-04-03T12:46:20;5.37;;;1.60;;
21168;SDS011;10742;51.816;8.662;2023-04-03T12:49:41;2.53;;;1.53;;
21168;SDS011;10742;51.816;8.662;2023-04-03T12:53:04;2.93;;;1.10;;
21168;SDS011;10742;51.816;8.662;2023-04-03T12:56:28;5.57;;;1.63;;
21168;SDS011;10742;51.816;8.662;2023-04-03T12:59:34;2.83;;;1.47;;
21168;SDS011;10742;51.816;8.662;2023-04-03T13:02:37;4.37;;;1.60;;
21168;SDS011;10742;51.816;8.662;2023-04-03T13:05:39;3.37;;;1.30;;
21168;SDS011;10742;51.816;8.662;2023-04-03T13:08:56;5.87;;;1.77;;
21168;SDS011;10742;51.816;8.662;2023-04-03T13:12:01;3.77;;;1.50;;
21168;SDS011;10742;51.816;8.662;2023-04-03T13:15:25;6.00;;;1.50;;
21168;SDS011;10742;51.816;8.662;2023-04-03T13:18:33;5.27;;;1.60;;
21168;SDS011;10742;51.816;8.662;2023-04-03T13:21:36;3.37;;;1.50;;
21168;SDS011;10742;51.816;8.662;2023-04-03T13:24:39;5.33;;;1.50;;
21168;SDS011;10742;51.816;8.662;2023-04-03T13:27:41;5.27;;;1.33;;
21168;SDS011;10742;51.816;8.662;2023-04-03T13:30:56;4.93;;;1.30;;
21168;SDS011;10742;51.816;8.662;2023-04-03T13:34:11;1.87;;;1.13;;
21168;SDS011;10742;51.816;8.662;2023-04-03T13:40:31;3.33;;;1.30;;
21168;SDS011;10742;51.816;8.662;2023-04-03T13:43:38;3.23;;;1.37;;
21168;SDS011;10742;51.816;8.662;2023-04-03T13:46:42;2.17;;;1.40;;
21168;SDS011;10742;51.816;8.662;2023-04-03T13:49:45;5.03;;;1.20;;
21168;SDS011;10742;51.816;8.662;2023-04-03T13:53:14;3.33;;;1.50;;
21168;SDS011;10742;51.816;8.662;2023-04-03T13:56:24;4.47;;;1.40;;
21168;SDS011;10742;51.816;8.662;2023-04-03T13:59:40;5.33;;;1.60;;
21168;SDS011;10742;51.816;8.662;2023-04-03T14:02:43;4.97;;;1.47;;
21168;SDS011;10742;51.816;8.662;2023-04-03T14:05:49;2.30;;;1.40;;
21168;SDS011;10742;51.816;8.662;2023-04-03T14:08:52;4.63;;;1.50;;
21168;SDS011;10742;51.816;8.662;2023-04-03T14:11:56;2.87;;;1.47;;
21168;SDS011;10742;51.816;8.662;2023-04-03T14:15:06;3.50;;;1.47;;
21168;SDS011;10742;51.816;8.662;2023-04-03T14:18:18;8.83;;;1.80;;
21168;SDS011;10742;51.816;8.662;2023-04-03T14:21:22;4.53;;;1.77;;
21168;SDS011;10742;51.816;8.662;2023-04-03T14:24:25;4.63;;;1.87;;
21168;SDS011;10742;51.816;8.662;2023-04-03T14:27:30;3.37;;;1.40;;
21168;SDS011;10742;51.816;8.662;2023-04-03T14:30:36;4.47;;;1.90;;
21168;SDS011;10742;51.816;8.662;2023-04-03T14:33:38;5.00;;;1.57;;
21168;SDS011;10742;51.816;8.662;2023-04-03T14:36:43;2.37;;;1.50;;
21168;SDS011;10742;51.816;8.662;2023-04-03T14:39:46;3.27;;;1.27;;
21168;SDS011;10742;51.816;8.662;2023-04-03T14:42:49;3.20;;;1.50;;
21168;SDS011;10742;51.816;8.662;2023-04-03T14:45:52;3.87;;;1.40;;
21168;SDS011;10742;51.816;8.662;2023-04-03T14:48:55;3.30;;;1.27;;
21168;SDS011;10742;51.816;8.662;2023-04-03T14:51:57;4.97;;;1.53;;
21168;SDS011;10742;51.816;8.662;2023-04-03T14:55:00;6.47;;;1.23;;
21168;SDS011;10742;51.816;8.662;2023-04-03T14:58:04;4.63;;;1.50;;
21168;SDS011;10742;51.816;8.662;2023-04-03T15:01:06;5.00;;;1.80;;
21168;SDS011;10742;51.816;8.662;2023-04-03T15:04:16;5.30;;;1.70;;
21168;SDS011;10742;51.816;8.662;2023-04-03T15:07:20;5.13;;;1.53;;
21168;SDS011;10742;51.816;8.662;2023-04-03T15:10:24;4.43;;;1.47;;
21168;SDS011;10742;51.816;8.662;2023-04-03T15:13:29;6.17;;;1.30;;
21168;SDS011;10742;51.816;8.662;2023-04-03T15:16:31;4.20;;;1.50;;
21168;SDS011;10742;51.816;8.662;2023-04-03T15:19:36;5.77;;;1.60;;
21168;SDS011;10742;51.816;8.662;2023-04-03T15:22:40;4.87;;;1.40;;
21168;SDS011;10742;51.816;8.662;2023-04-03T15:25:42;5.40;;;1.73;;
21168;SDS011;10742;51.816;8.662;2023-04-03T15:28:46;4.07;;;1.50;;
21168;SDS011;10742;51.816;8.662;2023-04-03T15:31:49;3.10;;;1.50;;
21168;SDS011;10742;51.816;8.662;2023-04-03T15:34:54;6.40;;;1.57;;
21168;SDS011;10742;51.816;8.662;2023-04-03T15:37:57;6.40;;;1.40;;
21168;SDS011;10742;51.816;8.662;2023-04-03T15:40:59;3.33;;;1.40;;
21168;SDS011;10742;51.816;8.662;2023-04-03T15:44:02;5.57;;;1.40;;
21168;SDS011;10742;51.816;8.662;2023-04-03T15:47:04;3.10;;;1.37;;
21168;SDS011;10742;51.816;8.662;2023-04-03T15:50:07;1.83;;;1.20;;
21168;SDS011;10742;51.816;8.662;2023-04-03T15:53:10;3.47;;;1.70;;
21168;SDS011;10742;51.816;8.662;2023-04-03T15:56:12;4.47;;;1.40;;
21168;SDS011;10742;51.816;8.662;2023-04-03T15:59:14;3.27;;;1.40;;
21168;SDS011;10742;51.816;8.662;2023-04-03T16:02:17;3.93;;;1.70;;
21168;SDS011;10742;51.816;8.662;2023-04-03T16:05:19;3.90;;;1.40;;
21168;SDS011;10742;51.816;8.662;2023-04-03T16:08:22;4.57;;;1.70;;
21168;SDS011;10742;51.816;8.662;2023-04-03T16:11:25;4.97;;;1.60;;
21168;SDS011;10742;51.816;8.662;2023-04-03T16:14:28;4.90;;;1.40;;
21168;SDS011;10742;51.816;8.662;2023-04-03T16:17:32;3.37;;;1.10;;
21168;SDS011;10742;51.816;8.662;2023-04-03T16:20:36;5.80;;;1.80;;
21168;SDS011;10742;51.816;8.662;2023-04-03T16:23:39;5.43;;;1.20;;
21168;SDS011;10742;51.816;8.662;2023-04-03T16:26:41;7.03;;;1.50;;
21168;SDS011;10742;51.816;8.662;2023-04-03T16:29:44;6.30;;;1.77;;
21168;SDS011;10742;51.816;8.662;2023-04-03T16:32:46;4.67;;;1.30;;
21168;SDS011;10742;51.816;8.662;2023-04-03T16:35:49;2.30;;;1.30;;
21168;SDS011;10742;51.816;8.662;2023-04-03T16:38:52;5.83;;;1.50;;
21168;SDS011;10742;51.816;8.662;2023-04-03T16:41:54;4.63;;;1.60;;
21168;SDS011;10742;51.816;8.662;2023-04-03T16:44:57;4.77;;;1.60;;
21168;SDS011;10742;51.816;8.662;2023-04-03T16:48:00;4.57;;;1.50;;
21168;SDS011;10742;51.816;8.662;2023-04-03T16:51:02;3.77;;;1.30;;
21168;SDS011;10742;51.816;8.662;2023-04-03T16:54:05;3.77;;;1.10;;
21168;SDS011;10742;51.816;8.662;2023-04-03T16:57:08;8.80;;;1.80;;
21168;SDS011;10742;51.816;8.662;2023-04-03T17:00:10;6.30;;;1.43;;
21168;SDS011;10742;51.816;8.662;2023-04-03T17:03:13;7.77;;;2.20;;
21168;SDS011;10742;51.816;8.662;2023-04-03T17:06:16;6.00;;;2.07;;
21168;SDS011;10742;51.816;8.662;2023-04-03T17:09:20;7.87;;;1.90;;
21168;SDS011;10742;51.816;8.662;2023-04-03T17:12:24;3.97;;;1.73;;
21168;SDS011;10742;51.816;8.662;2023-04-03T17:15:26;5.10;;;1.67;;
21168;SDS011;10742;51.816;8.662;2023-04-03T17:18:29;4.30;;;1.70;;
21168;SDS011;10742;51.816;8.662;2023-04-03T17:21:32;3.87;;;1.70;;
21168;SDS011;10742;51.816;8.662;2023-04-03T17:24:35;6.03;;;1.60;;
21168;SDS011;10742;51.816;8.662;2023-04-03T17:27:37;4.80;;;1.67;;
21168;SDS011;10742;51.816;8.662;2023-04-03T17:30:40;4.93;;;1.53;;
21168;SDS011;10742;51.816;8.662;2023-04-03T17:33:42;6.47;;;1.80;;
21168;SDS011;10742;51.816;8.662;2023-04-03T17:36:45;2.90;;;1.53;;
21168;SDS011;10742;51.816;8.662;2023-04-03T17:39:47;2.23;;;1.13;;
21168;SDS011;10742;51.816;8.662;2023-04-03T17:42:50;4.93;;;1.53;;
21168;SDS011;10742;51.816;8.662;2023-04-03T17:45:53;4.00;;;1.50;;
21168;SDS011;10742;51.816;8.662;2023-04-03T17:49:04;4.37;;;1.60;;
21168;SDS011;10742;51.816;8.662;2023-04-03T17:52:06;8.83;;;1.77;;
21168;SDS011;10742;51.816;8.662;2023-04-03T17:59:05;4.10;;;1.40;;
21168;SDS011;10742;51.816;8.662;2023-04-03T18:02:07;4.00;;;1.60;;
21168;SDS011;10742;51.816;8.662;2023-04-03T18:05:10;4.07;;;1.70;;
21168;SDS011;10742;51.816;8.662;2023-04-03T18:08:12;5.37;;;1.57;;
21168;SDS011;10742;51.816;8.662;2023-04-03T18:11:15;5.63;;;1.50;;
21168;SDS011;10742;51.816;8.662;2023-04-03T18:14:20;3.37;;;1.50;;
21168;SDS011;10742;51.816;8.662;2023-04-03T18:17:24;2.63;;;1.27;;
21168;SDS011;10742;51.816;8.662;2023-04-03T18:20:27;2.43;;;1.23;;
21168;SDS011;10742;51.816;8.662;2023-04-03T18:23:31;3.33;;;1.70;;
21168;SDS011;10742;51.816;8.662;2023-04-03T18:26:35;6.20;;;1.57;;
21168;SDS011;10742;51.816;8.662;2023-04-03T18:29:37;3.00;;;1.47;;
21168;SDS011;10742;51.816;8.662;2023-04-03T18:32:42;7.40;;;1.70;;
21168;SDS011;10742;51.816;8.662;2023-04-03T18:35:44;3.90;;;1.73;;
21168;SDS011;10742;51.816;8.662;2023-04-03T18:38:50;3.57;;;1.83;;
21168;SDS011;10742;51.816;8.662;2023-04-03T18:41:52;5.37;;;1.30;;
21168;SDS011;10742;51.816;8.662;2023-04-03T18:44:57;3.47;;;1.70;;
21168;SDS011;10742;51.816;8.662;2023-04-03T18:48:02;3.47;;;1.70;;
21168;SDS011;10742;51.816;8.662;2023-04-03T18:51:05;3.73;;;1.47;;
21168;SDS011;10742;51.816;8.662;2023-04-03T18:54:07;3.87;;;1.70;;
21168;SDS011;10742;51.816;8.662;2023-04-03T18:57:10;5.27;;;1.87;;
21168;SDS011;10742;51.816;8.662;2023-04-03T19:00:14;14.77;;;3.80;;
21168;SDS011;10742;51.816;8.662;2023-04-03T19:03:18;8.27;;;2.87;;
21168;SDS011;10742;51.816;8.662;2023-04-03T19:06:21;6.70;;;2.77;;
21168;SDS011;10742;51.816;8.662;2023-04-03T19:09:24;4.53;;;1.90;;
21168;SDS011;10742;51.816;8.662;2023-04-03T19:12:27;7.23;;;2.00;;
21168;SDS011;10742;51.816;8.662;2023-04-03T19:15:29;4.27;;;1.80;;
21168;SDS011;10742;51.816;8.662;2023-04-03T19:18:32;3.83;;;1.70;;
21168;SDS011;10742;51.816;8.662;2023-04-03T19:21:35;4.20;;;1.70;;
21168;SDS011;10742;51.816;8.662;2023-04-03T19:24:42;2.97;;;1.73;;
21168;SDS011;10742;51.816;8.662;2023-04-03T19:27:46;8.27;;;2.10;;
21168;SDS011;10742;51.816;8.662;2023-04-03T19:30:48;3.30;;;2.00;;
21168;SDS011;10742;51.816;8.662;2023-04-03T19:33:51;4.03;;;1.50;;
21168;SDS011;10742;51.816;8.662;2023-04-03T19:36:53;3.10;;;1.77;;
21168;SDS011;10742;51.816;8.662;2023-04-03T19:39:56;6.83;;;1.90;;
21168;SDS011;10742;51.816;8.662;2023-04-03T19:42:58;7.27;;;2.10;;
21168;SDS011;10742;51.816;8.662;2023-04-03T19:46:01;5.47;;;2.20;;